sensor_id;sensor_type;location;lat;lon;timestamp;P1;durP1;ratioP1;P2;durP2;ratioP2
55815;SDS011;41744;52.404;16.942;2024-02-26T00:01:40;83.50;;;34.40;;
55815;SDS011;41744;52.404;16.942;2024-02-26T00:04:08;83.07;;;33.30;;
55815;SDS011;41744;52.404;16.942;2024-02-26T00:06:34;88.13;;;35.03;;
55815;SDS011;41744;52.404;16.942;2024-02-26T00:09:00;83.33;;;32.80;;
55815;SDS011;41744;52.404;16.942;2024-02-26T00:11:30;86.47;;;34.13;;
55815;SDS011;41744;52.404;16.942;2024-02-26T00:13:56;78.37;;;33.33;;
55815;SDS011;41744;52.404;16.942;2024-02-26T00:16:23;80.03;;;32.90;;
55815;SDS011;41744;52.404;16.942;2024-02-26T00:18:49;78.60;;;32.13;;
55815;SDS011;41744;52.404;16.942;2024-02-26T00:21:15;83.40;;;32.77;;
55815;SDS011;41744;52.404;16.942;2024-02-26T00:23:41;85.73;;;32.17;;
55815;SDS011;41744;52.404;16.942;2024-02-26T00:26:07;85.70;;;33.57;;
55815;SDS011;41744;52.404;16.942;2024-02-26T00:28:33;79.73;;;32.63;;
55815;SDS011;41744;52.404;16.942;2024-02-26T00:30:59;75.23;;;31.23;;
55815;SDS011;41744;52.404;16.942;2024-02-26T00:33:25;83.40;;;32.80;;
55815;SDS011;41744;52.404;16.942;2024-02-26T00:35:51;83.80;;;31.77;;
55815;SDS011;41744;52.404;16.942;2024-02-26T00:38:17;78.03;;;31.60;;
55815;SDS011;41744;52.404;16.942;2024-02-26T00:40:43;88.93;;;30.70;;
55815;SDS011;41744;52.404;16.942;2024-02-26T00:43:09;80.27;;;32.53;;
55815;SDS011;41744;52.404;16.942;2024-02-26T00:45:35;73.20;;;30.17;;
55815;SDS011;41744;52.404;16.942;2024-02-26T00:48:01;79.13;;;30.70;;
55815;SDS011;41744;52.404;16.942;2024-02-26T00:50:30;73.47;;;28.83;;
55815;SDS011;41744;52.404;16.942;2024-02-26T00:52:56;75.50;;;30.10;;
55815;SDS011;41744;52.404;16.942;2024-02-26T00:55:22;72.37;;;29.67;;
55815;SDS011;41744;52.404;16.942;2024-02-26T00:57:48;68.93;;;28.63;;
55815;SDS011;41744;52.404;16.942;2024-02-26T01:00:14;68.63;;;29.17;;
55815;SDS011;41744;52.404;16.942;2024-02-26T01:02:40;74.27;;;30.03;;
55815;SDS011;41744;52.404;16.942;2024-02-26T01:05:07;66.57;;;28.47;;
55815;SDS011;41744;52.404;16.942;2024-02-26T01:07:34;66.93;;;28.60;;
55815;SDS011;41744;52.404;16.942;2024-02-26T01:10:04;68.97;;;28.67;;
55815;SDS011;41744;52.404;16.942;2024-02-26T01:12:33;66.83;;;27.77;;
55815;SDS011;41744;52.404;16.942;2024-02-26T01:14:59;65.63;;;27.70;;
55815;SDS011;41744;52.404;16.942;2024-02-26T01:17:25;66.07;;;28.43;;
55815;SDS011;41744;52.404;16.942;2024-02-26T01:19:51;72.47;;;29.07;;
55815;SDS011;41744;52.404;16.942;2024-02-26T01:22:18;67.97;;;27.30;;
55815;SDS011;41744;52.404;16.942;2024-02-26T01:24:44;68.03;;;28.87;;
55815;SDS011;41744;52.404;16.942;2024-02-26T01:27:10;64.50;;;28.20;;
55815;SDS011;41744;52.404;16.942;2024-02-26T01:29:37;64.07;;;27.53;;
55815;SDS011;41744;52.404;16.942;2024-02-26T01:32:03;67.33;;;27.37;;
55815;SDS011;41744;52.404;16.942;2024-02-26T01:34:30;69.97;;;27.53;;
55815;SDS011;41744;52.404;16.942;2024-02-26T01:36:56;63.20;;;27.23;;
55815;SDS011;41744;52.404;16.942;2024-02-26T01:39:22;62.33;;;26.40;;
55815;SDS011;41744;52.404;16.942;2024-02-26T01:41:48;62.87;;;25.93;;
55815;SDS011;41744;52.404;16.942;2024-02-26T01:44:14;67.13;;;27.00;;
55815;SDS011;41744;52.404;16.942;2024-02-26T01:46:40;66.40;;;26.97;;
55815;SDS011;41744;52.404;16.942;2024-02-26T01:49:07;57.03;;;26.10;;
55815;SDS011;41744;52.404;16.942;2024-02-26T01:51:34;66.63;;;26.87;;
55815;SDS011;41744;52.404;16.942;2024-02-26T01:54:01;62.80;;;26.87;;
55815;SDS011;41744;52.404;16.942;2024-02-26T01:56:28;62.93;;;27.00;;
55815;SDS011;41744;52.404;16.942;2024-02-26T01:58:58;66.23;;;26.43;;
55815;SDS011;41744;52.404;16.942;2024-02-26T02:01:31;57.03;;;25.50;;
55815;SDS011;41744;52.404;16.942;2024-02-26T02:03:58;66.73;;;26.27;;
55815;SDS011;41744;52.404;16.942;2024-02-26T02:06:24;65.77;;;26.50;;
55815;SDS011;41744;52.404;16.942;2024-02-26T02:08:50;68.60;;;26.10;;
55815;SDS011;41744;52.404;16.942;2024-02-26T02:11:16;61.63;;;25.90;;
55815;SDS011;41744;52.404;16.942;2024-02-26T02:13:42;58.43;;;24.00;;
55815;SDS011;41744;52.404;16.942;2024-02-26T02:16:09;55.47;;;24.47;;
55815;SDS011;41744;52.404;16.942;2024-02-26T02:18:35;61.50;;;23.67;;
55815;SDS011;41744;52.404;16.942;2024-02-26T02:21:01;57.57;;;24.57;;
55815;SDS011;41744;52.404;16.942;2024-02-26T02:23:27;53.10;;;24.00;;
55815;SDS011;41744;52.404;16.942;2024-02-26T02:25:53;55.67;;;23.20;;
55815;SDS011;41744;52.404;16.942;2024-02-26T02:28:23;56.17;;;21.97;;
55815;SDS011;41744;52.404;16.942;2024-02-26T02:30:49;55.67;;;22.67;;
55815;SDS011;41744;52.404;16.942;2024-02-26T02:33:15;55.90;;;23.50;;
55815;SDS011;41744;52.404;16.942;2024-02-26T02:35:42;53.07;;;22.67;;
55815;SDS011;41744;52.404;16.942;2024-02-26T02:38:08;52.83;;;22.37;;
55815;SDS011;41744;52.404;16.942;2024-02-26T02:40:34;52.83;;;22.77;;
55815;SDS011;41744;52.404;16.942;2024-02-26T02:43:00;53.87;;;23.07;;
55815;SDS011;41744;52.404;16.942;2024-02-26T02:45:27;46.57;;;21.17;;
55815;SDS011;41744;52.404;16.942;2024-02-26T02:47:53;50.27;;;21.60;;
55815;SDS011;41744;52.404;16.942;2024-02-26T02:50:19;47.03;;;21.03;;
55815;SDS011;41744;52.404;16.942;2024-02-26T02:52:45;45.00;;;19.97;;
55815;SDS011;41744;52.404;16.942;2024-02-26T02:55:11;47.23;;;21.07;;
55815;SDS011;41744;52.404;16.942;2024-02-26T02:57:37;51.90;;;21.20;;
55815;SDS011;41744;52.404;16.942;2024-02-26T03:00:07;56.10;;;21.33;;
55815;SDS011;41744;52.404;16.942;2024-02-26T03:02:33;57.17;;;22.63;;
55815;SDS011;41744;52.404;16.942;2024-02-26T03:05:01;53.87;;;21.90;;
55815;SDS011;41744;52.404;16.942;2024-02-26T03:07:27;56.17;;;23.20;;
55815;SDS011;41744;52.404;16.942;2024-02-26T03:09:53;54.33;;;22.00;;
55815;SDS011;41744;52.404;16.942;2024-02-26T03:12:19;59.00;;;23.70;;
55815;SDS011;41744;52.404;16.942;2024-02-26T03:14:45;54.50;;;22.07;;
55815;SDS011;41744;52.404;16.942;2024-02-26T03:17:11;54.63;;;23.30;;
55815;SDS011;41744;52.404;16.942;2024-02-26T03:19:37;60.33;;;23.27;;
55815;SDS011;41744;52.404;16.942;2024-02-26T03:22:03;53.97;;;22.70;;
55815;SDS011;41744;52.404;16.942;2024-02-26T03:24:29;53.33;;;23.63;;
55815;SDS011;41744;52.404;16.942;2024-02-26T03:26:55;62.70;;;23.90;;
55815;SDS011;41744;52.404;16.942;2024-02-26T03:29:21;60.33;;;23.13;;
55815;SDS011;41744;52.404;16.942;2024-02-26T03:31:47;60.07;;;23.40;;
55815;SDS011;41744;52.404;16.942;2024-02-26T03:34:13;54.07;;;24.23;;
55815;SDS011;41744;52.404;16.942;2024-02-26T03:36:39;60.17;;;22.87;;
55815;SDS011;41744;52.404;16.942;2024-02-26T03:39:06;59.00;;;24.90;;
55815;SDS011;41744;52.404;16.942;2024-02-26T03:41:35;60.60;;;24.60;;
55815;SDS011;41744;52.404;16.942;2024-02-26T03:44:01;56.47;;;22.23;;
55815;SDS011;41744;52.404;16.942;2024-02-26T03:46:27;55.43;;;23.50;;
55815;SDS011;41744;52.404;16.942;2024-02-26T03:48:53;59.57;;;23.20;;
55815;SDS011;41744;52.404;16.942;2024-02-26T03:51:19;58.50;;;23.07;;
55815;SDS011;41744;52.404;16.942;2024-02-26T03:53:45;62.27;;;22.57;;
55815;SDS011;41744;52.404;16.942;2024-02-26T03:56:12;56.17;;;23.47;;
55815;SDS011;41744;52.404;16.942;2024-02-26T03:58:41;55.00;;;23.40;;
55815;SDS011;41744;52.404;16.942;2024-02-26T04:01:07;60.83;;;24.23;;
55815;SDS011;41744;52.404;16.942;2024-02-26T04:03:34;48.77;;;22.80;;
55815;SDS011;41744;52.404;16.942;2024-02-26T04:06:00;54.63;;;21.83;;
55815;SDS011;41744;52.404;16.942;2024-02-26T04:08:26;52.13;;;22.50;;
55815;SDS011;41744;52.404;16.942;2024-02-26T04:10:52;54.53;;;22.20;;
55815;SDS011;41744;52.404;16.942;2024-02-26T04:13:18;49.87;;;22.53;;
55815;SDS011;41744;52.404;16.942;2024-02-26T04:15:44;53.63;;;23.20;;
55815;SDS011;41744;52.404;16.942;2024-02-26T04:18:11;50.30;;;22.20;;
55815;SDS011;41744;52.404;16.942;2024-02-26T04:20:37;50.67;;;22.50;;
55815;SDS011;41744;52.404;16.942;2024-02-26T04:23:03;55.80;;;22.33;;
55815;SDS011;41744;52.404;16.942;2024-02-26T04:25:29;53.17;;;23.17;;
55815;SDS011;41744;52.404;16.942;2024-02-26T04:27:55;60.70;;;23.87;;
55815;SDS011;41744;52.404;16.942;2024-02-26T04:30:21;45.97;;;21.43;;
55815;SDS011;41744;52.404;16.942;2024-02-26T04:32:47;52.47;;;22.33;;
55815;SDS011;41744;52.404;16.942;2024-02-26T04:35:13;52.03;;;22.30;;
55815;SDS011;41744;52.404;16.942;2024-02-26T04:37:39;54.27;;;22.93;;
55815;SDS011;41744;52.404;16.942;2024-02-26T04:40:05;52.83;;;22.07;;
55815;SDS011;41744;52.404;16.942;2024-02-26T04:42:32;57.20;;;22.67;;
55815;SDS011;41744;52.404;16.942;2024-02-26T04:44:58;51.00;;;21.97;;
55815;SDS011;41744;52.404;16.942;2024-02-26T04:47:24;54.70;;;22.57;;
55815;SDS011;41744;52.404;16.942;2024-02-26T04:49:50;50.47;;;20.67;;
55815;SDS011;41744;52.404;16.942;2024-02-26T04:52:17;48.00;;;20.97;;
55815;SDS011;41744;52.404;16.942;2024-02-26T04:54:43;49.67;;;21.33;;
55815;SDS011;41744;52.404;16.942;2024-02-26T04:57:09;56.63;;;22.40;;
55815;SDS011;41744;52.404;16.942;2024-02-26T04:59:35;50.40;;;22.20;;
55815;SDS011;41744;52.404;16.942;2024-02-26T05:02:00;49.17;;;22.10;;
55815;SDS011;41744;52.404;16.942;2024-02-26T05:04:26;51.87;;;21.63;;
55815;SDS011;41744;52.404;16.942;2024-02-26T05:06:52;58.00;;;23.03;;
55815;SDS011;41744;52.404;16.942;2024-02-26T05:09:18;52.23;;;21.47;;
55815;SDS011;41744;52.404;16.942;2024-02-26T05:11:45;53.63;;;22.17;;
55815;SDS011;41744;52.404;16.942;2024-02-26T05:14:11;51.07;;;21.97;;
55815;SDS011;41744;52.404;16.942;2024-02-26T05:16:37;47.13;;;21.50;;
55815;SDS011;41744;52.404;16.942;2024-02-26T05:19:03;52.13;;;22.13;;
55815;SDS011;41744;52.404;16.942;2024-02-26T05:21:30;53.27;;;21.63;;
55815;SDS011;41744;52.404;16.942;2024-02-26T05:23:56;52.53;;;22.30;;
55815;SDS011;41744;52.404;16.942;2024-02-26T05:26:23;49.73;;;21.93;;
55815;SDS011;41744;52.404;16.942;2024-02-26T05:28:49;55.50;;;21.77;;
55815;SDS011;41744;52.404;16.942;2024-02-26T05:31:15;56.23;;;21.77;;
55815;SDS011;41744;52.404;16.942;2024-02-26T05:33:41;49.93;;;21.97;;
55815;SDS011;41744;52.404;16.942;2024-02-26T05:36:07;51.40;;;21.90;;
55815;SDS011;41744;52.404;16.942;2024-02-26T05:38:33;56.07;;;23.30;;
55815;SDS011;41744;52.404;16.942;2024-02-26T05:40:59;57.20;;;23.13;;
55815;SDS011;41744;52.404;16.942;2024-02-26T05:43:26;52.77;;;23.17;;
55815;SDS011;41744;52.404;16.942;2024-02-26T05:45:52;58.10;;;23.83;;
55815;SDS011;41744;52.404;16.942;2024-02-26T05:48:18;59.13;;;24.10;;
55815;SDS011;41744;52.404;16.942;2024-02-26T05:50:44;56.13;;;23.50;;
55815;SDS011;41744;52.404;16.942;2024-02-26T05:53:10;55.20;;;23.73;;
55815;SDS011;41744;52.404;16.942;2024-02-26T05:55:36;61.50;;;24.40;;
55815;SDS011;41744;52.404;16.942;2024-02-26T05:58:02;58.53;;;23.90;;
55815;SDS011;41744;52.404;16.942;2024-02-26T06:00:28;61.30;;;24.60;;
55815;SDS011;41744;52.404;16.942;2024-02-26T06:02:54;59.87;;;23.90;;
55815;SDS011;41744;52.404;16.942;2024-02-26T06:05:20;59.50;;;24.43;;
55815;SDS011;41744;52.404;16.942;2024-02-26T06:07:47;62.80;;;24.93;;
55815;SDS011;41744;52.404;16.942;2024-02-26T06:10:13;65.63;;;24.47;;
55815;SDS011;41744;52.404;16.942;2024-02-26T06:12:39;59.50;;;23.53;;
55815;SDS011;41744;52.404;16.942;2024-02-26T06:15:05;59.53;;;24.23;;
55815;SDS011;41744;52.404;16.942;2024-02-26T06:17:31;61.63;;;24.80;;
55815;SDS011;41744;52.404;16.942;2024-02-26T06:19:57;55.43;;;23.97;;
55815;SDS011;41744;52.404;16.942;2024-02-26T06:22:24;57.67;;;22.27;;
55815;SDS011;41744;52.404;16.942;2024-02-26T06:24:50;58.37;;;23.63;;
55815;SDS011;41744;52.404;16.942;2024-02-26T06:27:16;62.50;;;23.47;;
55815;SDS011;41744;52.404;16.942;2024-02-26T06:29:42;57.93;;;23.17;;
55815;SDS011;41744;52.404;16.942;2024-02-26T06:32:09;55.03;;;24.87;;
55815;SDS011;41744;52.404;16.942;2024-02-26T06:34:35;57.97;;;25.07;;
55815;SDS011;41744;52.404;16.942;2024-02-26T06:37:03;58.10;;;24.23;;
55815;SDS011;41744;52.404;16.942;2024-02-26T06:39:29;56.90;;;23.80;;
55815;SDS011;41744;52.404;16.942;2024-02-26T06:41:55;53.23;;;23.17;;
55815;SDS011;41744;52.404;16.942;2024-02-26T06:44:25;51.93;;;22.67;;
55815;SDS011;41744;52.404;16.942;2024-02-26T06:46:56;52.47;;;22.80;;
55815;SDS011;41744;52.404;16.942;2024-02-26T06:49:22;49.07;;;21.90;;
55815;SDS011;41744;52.404;16.942;2024-02-26T06:51:48;49.27;;;22.30;;
55815;SDS011;41744;52.404;16.942;2024-02-26T06:54:14;52.00;;;22.47;;
55815;SDS011;41744;52.404;16.942;2024-02-26T06:56:40;57.87;;;23.43;;
55815;SDS011;41744;52.404;16.942;2024-02-26T06:59:06;64.32;;;23.50;;
55815;SDS011;41744;52.404;16.942;2024-02-26T07:01:32;55.57;;;23.37;;
55815;SDS011;41744;52.404;16.942;2024-02-26T07:03:58;46.13;;;22.42;;
55815;SDS011;41744;52.404;16.942;2024-02-26T07:06:24;52.53;;;22.98;;
55815;SDS011;41744;52.404;16.942;2024-02-26T07:08:50;50.80;;;23.42;;
55815;SDS011;41744;52.404;16.942;2024-02-26T07:11:16;52.17;;;23.08;;
55815;SDS011;41744;52.404;16.942;2024-02-26T07:13:44;57.78;;;25.30;;
55815;SDS011;41744;52.404;16.942;2024-02-26T07:16:10;51.42;;;24.70;;
55815;SDS011;41744;52.404;16.942;2024-02-26T07:18:36;55.58;;;25.65;;
55815;SDS011;41744;52.404;16.942;2024-02-26T07:21:02;63.60;;;26.77;;
55815;SDS011;41744;52.404;16.942;2024-02-26T07:23:28;57.95;;;26.20;;
55815;SDS011;41744;52.404;16.942;2024-02-26T07:25:54;59.35;;;27.38;;
55815;SDS011;41744;52.404;16.942;2024-02-26T07:28:20;63.00;;;27.33;;
55815;SDS011;41744;52.404;16.942;2024-02-26T07:30:46;58.30;;;26.33;;
55815;SDS011;41744;52.404;16.942;2024-02-26T07:33:12;55.43;;;25.07;;
55815;SDS011;41744;52.404;16.942;2024-02-26T07:35:38;58.35;;;25.60;;
55815;SDS011;41744;52.404;16.942;2024-02-26T07:38:04;60.83;;;24.45;;
55815;SDS011;41744;52.404;16.942;2024-02-26T07:40:30;55.95;;;24.77;;
55815;SDS011;41744;52.404;16.942;2024-02-26T07:42:56;56.22;;;24.77;;
55815;SDS011;41744;52.404;16.942;2024-02-26T07:45:22;54.60;;;24.80;;
55815;SDS011;41744;52.404;16.942;2024-02-26T07:47:48;63.30;;;25.70;;
55815;SDS011;41744;52.404;16.942;2024-02-26T07:50:16;51.80;;;24.20;;
55815;SDS011;41744;52.404;16.942;2024-02-26T07:52:42;53.10;;;23.67;;
55815;SDS011;41744;52.404;16.942;2024-02-26T07:55:08;55.47;;;24.17;;
55815;SDS011;41744;52.404;16.942;2024-02-26T07:57:35;49.55;;;22.25;;
55815;SDS011;41744;52.404;16.942;2024-02-26T08:00:01;51.40;;;23.45;;
55815;SDS011;41744;52.404;16.942;2024-02-26T08:02:27;53.13;;;24.45;;
55815;SDS011;41744;52.404;16.942;2024-02-26T08:04:53;51.25;;;24.08;;
55815;SDS011;41744;52.404;16.942;2024-02-26T08:07:19;55.28;;;25.63;;
55815;SDS011;41744;52.404;16.942;2024-02-26T08:09:46;52.78;;;25.00;;
55815;SDS011;41744;52.404;16.942;2024-02-26T08:12:12;53.95;;;23.60;;
55815;SDS011;41744;52.404;16.942;2024-02-26T08:14:38;56.03;;;24.13;;
55815;SDS011;41744;52.404;16.942;2024-02-26T08:17:04;51.75;;;24.13;;
55815;SDS011;41744;52.404;16.942;2024-02-26T08:19:30;53.47;;;23.45;;
55815;SDS011;41744;52.404;16.942;2024-02-26T08:21:56;51.55;;;23.05;;
55815;SDS011;41744;52.404;16.942;2024-02-26T08:24:22;51.95;;;23.50;;
55815;SDS011;41744;52.404;16.942;2024-02-26T08:26:48;51.33;;;21.98;;
55815;SDS011;41744;52.404;16.942;2024-02-26T08:29:14;48.38;;;21.75;;
55815;SDS011;41744;52.404;16.942;2024-02-26T08:31:40;48.95;;;21.90;;
55815;SDS011;41744;52.404;16.942;2024-02-26T08:34:06;48.63;;;21.70;;
55815;SDS011;41744;52.404;16.942;2024-02-26T08:36:33;49.17;;;22.50;;
55815;SDS011;41744;52.404;16.942;2024-02-26T08:39:00;51.37;;;21.67;;
55815;SDS011;41744;52.404;16.942;2024-02-26T08:41:26;49.90;;;21.92;;
55815;SDS011;41744;52.404;16.942;2024-02-26T08:43:52;49.28;;;22.33;;
55815;SDS011;41744;52.404;16.942;2024-02-26T08:46:18;50.03;;;21.60;;
55815;SDS011;41744;52.404;16.942;2024-02-26T08:48:44;44.70;;;20.70;;
55815;SDS011;41744;52.404;16.942;2024-02-26T08:51:09;47.63;;;19.30;;
55815;SDS011;41744;52.404;16.942;2024-02-26T08:53:36;46.50;;;19.80;;
55815;SDS011;41744;52.404;16.942;2024-02-26T08:56:02;39.33;;;17.63;;
55815;SDS011;41744;52.404;16.942;2024-02-26T08:58:28;51.03;;;17.70;;
55815;SDS011;41744;52.404;16.942;2024-02-26T09:00:54;43.77;;;16.87;;
55815;SDS011;41744;52.404;16.942;2024-02-26T09:03:20;40.80;;;16.97;;
55815;SDS011;41744;52.404;16.942;2024-02-26T09:05:46;37.67;;;15.83;;
55815;SDS011;41744;52.404;16.942;2024-02-26T09:08:12;36.43;;;15.57;;
55815;SDS011;41744;52.404;16.942;2024-02-26T09:10:38;37.43;;;16.07;;
55815;SDS011;41744;52.404;16.942;2024-02-26T09:13:04;36.07;;;16.00;;
55815;SDS011;41744;52.404;16.942;2024-02-26T09:15:30;38.10;;;16.33;;
55815;SDS011;41744;52.404;16.942;2024-02-26T09:17:57;32.97;;;14.60;;
55815;SDS011;41744;52.404;16.942;2024-02-26T09:20:23;32.57;;;14.83;;
55815;SDS011;41744;52.404;16.942;2024-02-26T09:22:50;40.23;;;14.20;;
55815;SDS011;41744;52.404;16.942;2024-02-26T09:25:16;33.90;;;14.50;;
55815;SDS011;41744;52.404;16.942;2024-02-26T09:27:43;33.20;;;14.77;;
55815;SDS011;41744;52.404;16.942;2024-02-26T09:30:12;33.87;;;14.27;;
55815;SDS011;41744;52.404;16.942;2024-02-26T09:32:38;31.50;;;13.40;;
55815;SDS011;41744;52.404;16.942;2024-02-26T09:35:07;30.00;;;13.70;;
55815;SDS011;41744;52.404;16.942;2024-02-26T09:37:33;31.10;;;13.80;;
55815;SDS011;41744;52.404;16.942;2024-02-26T09:40:02;32.33;;;12.80;;
55815;SDS011;41744;52.404;16.942;2024-02-26T09:42:28;33.03;;;13.97;;
55815;SDS011;41744;52.404;16.942;2024-02-26T09:44:55;34.57;;;14.33;;
55815;SDS011;41744;52.404;16.942;2024-02-26T09:47:21;35.30;;;15.50;;
55815;SDS011;41744;52.404;16.942;2024-02-26T09:49:49;32.10;;;14.03;;
55815;SDS011;41744;52.404;16.942;2024-02-26T09:52:15;31.33;;;13.87;;
55815;SDS011;41744;52.404;16.942;2024-02-26T09:54:42;30.40;;;13.82;;
55815;SDS011;41744;52.404;16.942;2024-02-26T09:57:12;30.00;;;13.33;;
55815;SDS011;41744;52.404;16.942;2024-02-26T09:59:41;30.93;;;13.90;;
55815;SDS011;41744;52.404;16.942;2024-02-26T10:02:12;26.48;;;12.57;;
55815;SDS011;41744;52.404;16.942;2024-02-26T10:04:39;25.57;;;11.67;;
55815;SDS011;41744;52.404;16.942;2024-02-26T10:07:06;25.15;;;11.88;;
55815;SDS011;41744;52.404;16.942;2024-02-26T10:09:35;28.08;;;13.13;;
55815;SDS011;41744;52.404;16.942;2024-02-26T10:12:01;27.25;;;12.93;;
55815;SDS011;41744;52.404;16.942;2024-02-26T10:14:27;26.55;;;11.90;;
55815;SDS011;41744;52.404;16.942;2024-02-26T10:16:53;21.88;;;10.75;;
55815;SDS011;41744;52.404;16.942;2024-02-26T10:19:25;28.23;;;11.95;;
55815;SDS011;41744;52.404;16.942;2024-02-26T10:21:55;24.85;;;11.55;;
55815;SDS011;41744;52.404;16.942;2024-02-26T10:24:22;26.83;;;11.75;;
55815;SDS011;41744;52.404;16.942;2024-02-26T10:26:48;25.42;;;12.23;;
55815;SDS011;41744;52.404;16.942;2024-02-26T10:29:14;29.55;;;12.35;;
55815;SDS011;41744;52.404;16.942;2024-02-26T10:31:43;23.45;;;11.18;;
55815;SDS011;41744;52.404;16.942;2024-02-26T10:34:09;28.15;;;10.68;;
55815;SDS011;41744;52.404;16.942;2024-02-26T10:36:35;21.90;;;10.43;;
55815;SDS011;41744;52.404;16.942;2024-02-26T10:39:05;22.88;;;10.70;;
55815;SDS011;41744;52.404;16.942;2024-02-26T10:41:32;26.40;;;10.52;;
55815;SDS011;41744;52.404;16.942;2024-02-26T10:43:59;23.45;;;11.02;;
55815;SDS011;41744;52.404;16.942;2024-02-26T10:46:25;22.30;;;9.52;;
55815;SDS011;41744;52.404;16.942;2024-02-26T10:48:51;21.38;;;11.13;;
55815;SDS011;41744;52.404;16.942;2024-02-26T10:51:22;23.50;;;10.55;;
55815;SDS011;41744;52.404;16.942;2024-02-26T10:53:50;24.80;;;10.88;;
55815;SDS011;41744;52.404;16.942;2024-02-26T10:56:19;20.45;;;10.18;;
55815;SDS011;41744;52.404;16.942;2024-02-26T10:58:45;21.92;;;9.95;;
55815;SDS011;41744;52.404;16.942;2024-02-26T11:01:12;21.92;;;10.18;;
55815;SDS011;41744;52.404;16.942;2024-02-26T11:03:38;19.30;;;8.57;;
55815;SDS011;41744;52.404;16.942;2024-02-26T11:06:04;17.65;;;8.77;;
55815;SDS011;41744;52.404;16.942;2024-02-26T11:08:30;19.65;;;9.23;;
55815;SDS011;41744;52.404;16.942;2024-02-26T11:11:00;19.70;;;9.88;;
55815;SDS011;41744;52.404;16.942;2024-02-26T11:13:28;17.77;;;8.82;;
55815;SDS011;41744;52.404;16.942;2024-02-26T11:15:57;19.85;;;8.80;;
55815;SDS011;41744;52.404;16.942;2024-02-26T11:18:23;18.70;;;9.30;;
55815;SDS011;41744;52.404;16.942;2024-02-26T11:20:51;21.73;;;9.38;;
55815;SDS011;41744;52.404;16.942;2024-02-26T11:23:20;16.75;;;8.40;;
55815;SDS011;41744;52.404;16.942;2024-02-26T11:25:46;18.95;;;9.10;;
55815;SDS011;41744;52.404;16.942;2024-02-26T11:28:13;18.70;;;9.25;;
55815;SDS011;41744;52.404;16.942;2024-02-26T11:30:41;16.13;;;7.72;;
55815;SDS011;41744;52.404;16.942;2024-02-26T11:33:08;17.42;;;9.23;;
55815;SDS011;41744;52.404;16.942;2024-02-26T11:35:36;19.55;;;8.15;;
55815;SDS011;41744;52.404;16.942;2024-02-26T11:38:02;19.02;;;8.40;;
55815;SDS011;41744;52.404;16.942;2024-02-26T11:40:30;16.23;;;7.82;;
55815;SDS011;41744;52.404;16.942;2024-02-26T11:42:57;20.00;;;8.75;;
55815;SDS011;41744;52.404;16.942;2024-02-26T11:48:13;20.48;;;9.10;;
55815;SDS011;41744;52.404;16.942;2024-02-26T11:50:39;18.80;;;9.07;;
55815;SDS011;41744;52.404;16.942;2024-02-26T11:53:21;18.90;;;9.23;;
55815;SDS011;41744;52.404;16.942;2024-02-26T11:55:48;20.27;;;9.60;;
55815;SDS011;41744;52.404;16.942;2024-02-26T11:58:14;22.33;;;9.68;;
55815;SDS011;41744;52.404;16.942;2024-02-26T12:00:40;17.25;;;8.50;;
55815;SDS011;41744;52.404;16.942;2024-02-26T12:03:06;20.73;;;9.70;;
55815;SDS011;41744;52.404;16.942;2024-02-26T12:05:33;21.38;;;9.38;;
55815;SDS011;41744;52.404;16.942;2024-02-26T12:10:32;19.45;;;8.75;;
55815;SDS011;41744;52.404;16.942;2024-02-26T12:13:15;21.83;;;10.07;;
55815;SDS011;41744;52.404;16.942;2024-02-26T12:15:42;19.75;;;10.98;;
55815;SDS011;41744;52.404;16.942;2024-02-26T12:18:09;20.92;;;9.98;;
55815;SDS011;41744;52.404;16.942;2024-02-26T12:20:35;22.75;;;9.93;;
55815;SDS011;41744;52.404;16.942;2024-02-26T12:23:02;18.52;;;9.95;;
55815;SDS011;41744;52.404;16.942;2024-02-26T12:25:29;23.63;;;9.70;;
55815;SDS011;41744;52.404;16.942;2024-02-26T12:27:56;26.35;;;9.77;;
55815;SDS011;41744;52.404;16.942;2024-02-26T12:30:22;20.20;;;8.98;;
55815;SDS011;41744;52.404;16.942;2024-02-26T12:32:49;23.75;;;9.55;;
55815;SDS011;41744;52.404;16.942;2024-02-26T12:35:15;19.30;;;9.32;;
55815;SDS011;41744;52.404;16.942;2024-02-26T12:37:45;25.15;;;9.35;;
55815;SDS011;41744;52.404;16.942;2024-02-26T12:40:12;23.10;;;9.88;;
55815;SDS011;41744;52.404;16.942;2024-02-26T12:42:38;19.30;;;9.35;;
55815;SDS011;41744;52.404;16.942;2024-02-26T12:45:05;20.50;;;9.57;;
55815;SDS011;41744;52.404;16.942;2024-02-26T12:47:35;22.88;;;9.90;;
55815;SDS011;41744;52.404;16.942;2024-02-26T12:50:02;25.13;;;10.80;;
55815;SDS011;41744;52.404;16.942;2024-02-26T12:52:29;20.17;;;9.75;;
55815;SDS011;41744;52.404;16.942;2024-02-26T12:54:55;23.35;;;10.43;;
55815;SDS011;41744;52.404;16.942;2024-02-26T12:57:21;23.02;;;10.38;;
55815;SDS011;41744;52.404;16.942;2024-02-26T12:59:47;21.35;;;10.43;;
55815;SDS011;41744;52.404;16.942;2024-02-26T13:02:13;22.50;;;9.60;;
55815;SDS011;41744;52.404;16.942;2024-02-26T13:04:39;20.42;;;10.05;;
55815;SDS011;41744;52.404;16.942;2024-02-26T13:07:05;20.70;;;9.23;;
55815;SDS011;41744;52.404;16.942;2024-02-26T13:09:32;24.20;;;9.82;;
55815;SDS011;41744;52.404;16.942;2024-02-26T13:11:59;22.98;;;10.13;;
55815;SDS011;41744;52.404;16.942;2024-02-26T13:14:26;20.35;;;9.07;;
55815;SDS011;41744;52.404;16.942;2024-02-26T13:16:55;20.90;;;9.80;;
55815;SDS011;41744;52.404;16.942;2024-02-26T13:19:21;23.10;;;9.90;;
55815;SDS011;41744;52.404;16.942;2024-02-26T13:21:47;22.10;;;10.77;;
55815;SDS011;41744;52.404;16.942;2024-02-26T13:24:13;23.77;;;10.37;;
55815;SDS011;41744;52.404;16.942;2024-02-26T13:26:39;20.42;;;10.18;;
55815;SDS011;41744;52.404;16.942;2024-02-26T13:29:06;21.45;;;9.60;;
55815;SDS011;41744;52.404;16.942;2024-02-26T13:31:32;19.13;;;9.50;;
55815;SDS011;41744;52.404;16.942;2024-02-26T13:34:05;21.58;;;9.98;;
55815;SDS011;41744;52.404;16.942;2024-02-26T13:36:31;23.33;;;9.80;;
55815;SDS011;41744;52.404;16.942;2024-02-26T13:38:57;23.92;;;10.07;;
55815;SDS011;41744;52.404;16.942;2024-02-26T13:41:23;20.67;;;9.68;;
55815;SDS011;41744;52.404;16.942;2024-02-26T13:43:49;21.80;;;9.18;;
55815;SDS011;41744;52.404;16.942;2024-02-26T13:46:16;23.48;;;10.07;;
55815;SDS011;41744;52.404;16.942;2024-02-26T13:48:42;21.45;;;9.30;;
55815;SDS011;41744;52.404;16.942;2024-02-26T13:51:09;21.10;;;9.27;;
55815;SDS011;41744;52.404;16.942;2024-02-26T13:53:35;18.38;;;8.85;;
55815;SDS011;41744;52.404;16.942;2024-02-26T13:56:01;21.52;;;9.65;;
55815;SDS011;41744;52.404;16.942;2024-02-26T13:58:30;50.80;;;12.65;;
55815;SDS011;41744;52.404;16.942;2024-02-26T14:00:56;18.52;;;8.95;;
55815;SDS011;41744;52.404;16.942;2024-02-26T14:03:24;21.05;;;9.05;;
55815;SDS011;41744;52.404;16.942;2024-02-26T14:05:51;21.60;;;9.82;;
55815;SDS011;41744;52.404;16.942;2024-02-26T14:08:17;25.60;;;9.10;;
55815;SDS011;41744;52.404;16.942;2024-02-26T14:10:43;20.23;;;8.98;;
55815;SDS011;41744;52.404;16.942;2024-02-26T14:13:09;21.45;;;8.57;;